Time;durP1;ratioP1;P1;durP2;ratioP2;P2;SDS_P1;SDS_P2;PMS_P1;PMS_P2;Temp;Humidity;BMP_temperature;BMP_pressure;BME280_temperature;BME280_humidity;BME280_pressure;Samples;Min_cycle;Max_cycle;Signal;HPM_P1;HPM_P2
2024/01/28 00:01:35;;;;;;;;;;;;;;;;;;10460181;28;19916;-81
2024/01/28 00:06:35;;;;;;;;;;;;;;;;;;10468875;28;19940;-80
2024/01/28 00:11:36;;;;;;;;;;;;;;;;;;10452868;28;20294;-82
2024/01/28 00:16:36;;;;;;;;;;;;;;;;;;10464879;28;19996;-83
2024/01/28 00:21:37;;;;;;;;;;;;;;;;;;10449707;28;20336;-82
2024/01/28 00:26:37;;;;;;;;;;;;;;;;;;10445062;28;19970;-80
2024/01/28 00:31:37;;;;;;;;;;;;;;;;;;10451750;28;19915;-81
2024/01/28 00:36:37;;;;;;;;;;;;;;;;;;10456718;28;20340;-81
2024/01/28 00:41:37;;;;;;;;;;;;;;;;;;10450513;28;19951;-81
2024/01/28 00:46:37;;;;;;;;;;;;;;;;;;10461821;28;19986;-81
2024/01/28 00:51:37;;;;;;;;;;;;;;;;;;10442556;28;19919;-80
2024/01/28 00:56:39;;;;;;;;;;;;;;;;;;10460965;28;20012;-80
2024/01/28 01:01:39;;;;;;;;;;;;;;;;;;10440450;28;19916;-81
2024/01/28 01:06:39;;;;;;;;;;;;;;;;;;10440726;28;20286;-81
2024/01/28 01:11:40;;;;;;;;;;;;;;;;;;10453249;28;19936;-81
2024/01/28 01:16:43;;;;;;;;;;;;;;;;;;10459436;28;19916;-80
2024/01/28 01:21:43;;;;;;;;;;;;;;;;;;10438902;28;20410;-82
2024/01/28 01:26:43;;;;;;;;;;;;;;;;;;10441594;28;20015;-82
2024/01/28 01:31:43;;;;;;;;;;;;;;;;;;10474002;28;20443;-83
2024/01/28 01:36:43;;;;;;;;;;;;;;;;;;10465056;28;19948;-83
2024/01/28 01:41:44;;;;;;;;;;;;;;;;;;10455828;28;19919;-83
2024/01/28 01:46:44;;;;;;;;;;;;;;;;;;10451487;28;20624;-81
2024/01/28 01:51:44;;;;;;;;;;;;;;;;;;10473007;28;20019;-81
2024/01/28 01:56:44;;;;;;;;;;;;;;;;;;10472996;28;19915;-81
2024/01/28 02:01:45;;;;;;;;;;;;;;;;;;10474233;28;19909;-82
2024/01/28 02:06:45;;;;;;;;;;;;;;;;;;10456370;28;20301;-81
2024/01/28 02:11:46;;;;;;;;;;;;;;;;;;10460663;28;19908;-80
2024/01/28 02:16:48;;;;;;;;;;;;;;;;;;10473650;28;19908;-80
2024/01/28 02:21:48;;;;;;;;;;;;;;;;;;10438799;28;19914;-81
2024/01/28 02:26:48;;;;;;;;;;;;;;;;;;10443713;28;20418;-81
2024/01/28 02:31:48;;;;;;;;;;;;;;;;;;10473040;28;19999;-81
2024/01/28 02:36:48;;;;;;;;;;;;;;;;;;10451107;28;19919;-81
2024/01/28 02:41:48;;;;;;;;;;;;;;;;;;10451225;28;19999;-81
2024/01/28 02:46:48;;;;;;;;;;;;;;;;;;10453057;28;20371;-82
2024/01/28 02:51:49;;;;;;;;;;;;;;;;;;10441774;28;19999;-81
2024/01/28 02:56:49;;;;;;;;;;;;;;;;;;10472049;28;19909;-82
2024/01/28 03:01:49;;;;;;;;;;;;;;;;;;10458834;28;19924;-82
2024/01/28 03:06:49;;;;;;;;;;;;;;;;;;10451140;28;20023;-81
2024/01/28 03:11:52;;;;;;;;;;;;;;;;;;10477983;28;20435;-82
2024/01/28 03:16:52;;;;;;;;;;;;;;;;;;10479954;28;20402;-81
2024/01/28 03:26:55;;;;;;;;;;;;;;;;;;10465720;28;19916;-82
2024/01/28 03:31:55;;;;;;;;;;;;;;;;;;10479960;28;20326;-84
2024/01/28 03:36:55;;;;;;;;;;;;;;;;;;10480031;28;19963;-82
2024/01/28 03:41:55;;;;;;;;;;;;;;;;;;10469723;28;19912;-82
2024/01/28 03:46:55;;;;;;;;;;;;;;;;;;10474901;28;19919;-81
2024/01/28 03:51:56;;;;;;;;;;;;;;;;;;10479763;28;20283;-81
2024/01/28 03:56:56;;;;;;;;;;;;;;;;;;10479324;28;19908;-81
2024/01/28 04:01:56;;;;;;;;;;;;;;;;;;10480834;28;19908;-82
2024/01/28 04:06:56;;;;;;;;;;;;;;;;;;10478838;28;20282;-83
2024/01/28 04:11:56;;;;;;;;;;;;;;;;;;10465625;28;20007;-83
2024/01/28 04:16:57;;;;;;;;;;;;;;;;;;10462440;28;19909;-82
2024/01/28 04:27:00;;;;;;;;;;;;;;;;;;10479421;28;20432;-82
2024/01/28 04:32:00;;;;;;;;;;;;;;;;;;10469809;28;19913;-81
2024/01/28 04:42:14;;;;;;;;;;;;;;;;;;10464253;28;20356;-80
2024/01/28 04:47:14;;;;;;;;;;;;;;;;;;10478364;28;20462;-81
2024/01/28 04:52:16;;;;;;;;;;;;;;;;;;10478302;28;19959;-81
2024/01/28 04:57:17;;;;;;;;;;;;;;;;;;10469125;28;19912;-82
2024/01/28 05:02:17;;;;;;;;;;;;;;;;;;10476941;28;19909;-80
2024/01/28 05:07:17;;;;;;;;;;;;;;;;;;10447593;28;19924;-81
2024/01/28 05:17:36;;;;;;;;;;;;;;;;;;10476685;28;19909;-83
2024/01/28 05:22:36;;;;;;;;;;;;;;;;;;10475163;28;19917;-81
2024/01/28 05:27:42;;;;;;;;;;;;;;;;;;10468806;28;19952;-83
2024/01/28 05:32:43;;;;;;;;;;;;;;;;;;10463027;28;19915;-82
2024/01/28 05:37:43;;;;;;;;;;;;;;;;;;10474344;28;19912;-83
2024/01/28 05:42:56;;;;;;;;;;;;;;;;;;10460852;28;19913;-82
2024/01/28 05:48:01;;;;;;;;;;;;;;;;;;10474626;28;19924;-82
2024/01/28 05:53:07;;;;;;;;;;;;;;;;;;10474050;28;19916;-82
2024/01/28 05:58:15;;;;;;;;;;;;;;;;;;10474688;28;20402;-81
2024/01/28 06:03:15;;;;;;;;;;;;;;;;;;10468372;28;20633;-81
2024/01/28 06:08:16;;;;;;;;;;;;;;;;;;10472974;28;19912;-80
2024/01/28 06:13:16;;;;;;;;;;;;;;;;;;10456069;28;20441;-81
2024/01/28 06:18:16;;;;;;;;;;;;;;;;;;10468094;28;19909;-80
2024/01/28 06:23:16;;;;;;;;;;;;;;;;;;10454673;28;20366;-81
2024/01/28 06:28:24;;;;;;;;;;;;;;;;;;10473166;28;19913;-81
2024/01/28 06:33:25;;;;;;;;;;;;;;;;;;10444562;28;20348;-84
2024/01/28 06:43:29;;;;;;;;;;;;;;;;;;10463759;28;20371;-89
2024/01/28 06:48:44;;;;;;;;;;;;;;;;;;10478307;28;19912;-93
2024/01/28 06:53:47;;;;;;;;;;;;;;;;;;10475166;28;20524;-87
2024/01/28 06:58:47;;;;;;;;;;;;;;;;;;10460722;28;20003;-81
2024/01/28 07:03:48;;;;;;;;;;;;;;;;;;10470665;28;20306;-95
2024/01/28 07:13:59;;;;;;;;;;;;;;;;;;10475709;28;20386;-88
2024/01/28 07:18:59;;;;;;;;;;;;;;;;;;10446209;28;19919;-87
2024/01/28 07:23:59;;;;;;;;;;;;;;;;;;10460854;28;20431;-85
2024/01/28 07:29:00;;;;;;;;;;;;;;;;;;10462258;28;20018;-84
2024/01/28 07:34:01;;;;;;;;;;;;;;;;;;10475968;28;19970;-91
2024/01/28 07:39:09;;;;;;;;;;;;;;;;;;10460732;28;19909;-91
2024/01/28 07:44:09;;;;;;;;;;;;;;;;;;10457307;28;19952;-88
2024/01/28 07:49:16;;;;;;;;;;;;;;;;;;10459389;28;19960;-90
2024/01/28 07:54:18;;;;;;;;;;;;;;;;;;10468176;28;19961;-87
2024/01/28 07:59:19;;;;;;;;;;;;;;;;;;10480667;28;19916;-90
2024/01/28 08:04:19;;;;;;;;;;;;;;;;;;10487947;28;20409;-90
2024/01/28 08:09:20;;;;;;;;;;;;;;;;;;10480587;28;19938;-79
2024/01/28 08:14:26;;;;;;;;;;;;;;;;;;10467715;28;19909;-81
2024/01/28 08:19:26;;;;;;;;;;;;;;;;;;10457906;28;19915;-84
2024/01/28 08:24:27;;;;;;;;;;;;;;;;;;10472429;28;19923;-88
2024/01/28 08:29:30;;;;;;;;;;;;;;;;;;10445180;28;20023;-83
2024/01/28 08:34:30;;;;;;;;;;;;;;;;;;10464910;28;20426;-80
2024/01/28 08:39:31;;;;;;;;;;;;;;;;;;10466515;28;19970;-80
2024/01/28 08:44:31;;;;;;;;;;;;;;;;;;10466620;28;19917;-79
2024/01/28 08:49:31;;;;;;;;;;;;;;;;;;10450948;28;19920;-81
2024/01/28 08:54:32;;;;;;;;;;;;;;;;;;10451168;28;19948;-90
2024/01/28 08:59:34;;;;;;;;;;;;;;;;;;10466626;28;20400;-86
2024/01/28 09:04:34;;;;;;;;;;;;;;;;;;10460179;28;19964;-85
2024/01/28 09:09:34;;;;;;;;;;;;;;;;;;10448387;28;19947;-82
2024/01/28 09:14:34;;;;;;;;;;;;;;;;;;10445674;28;19909;-80
2024/01/28 09:19:34;;;;;;;;;;;;;;;;;;10453218;28;19931;-78
2024/01/28 09:24:35;;;;;;;;;;;;;;;;;;10462527;28;20028;-78
2024/01/28 09:29:35;;;;;;;;;;;;;;;;;;10464199;28;19997;-80
2024/01/28 09:34:45;;;;;;;;;;;;;;;;;;10463755;28;20558;-82
2024/01/28 09:39:53;;;;;;;;;;;;;;;;;;10467857;28;19913;-84
2024/01/28 09:44:53;;;;;;;;;;;;;;;;;;10439941;28;20394;-77
2024/01/28 09:49:53;;;;;;;;;;;;;;;;;;10457566;28;20021;-77
2024/01/28 09:54:54;;;;;;;;;;;;;;;;;;10455369;28;19915;-78
2024/01/28 09:59:54;;;;;;;;;;;;;;;;;;10438051;28;20464;-78
2024/01/28 10:04:55;;;;;;;;;;;;;;;;;;10455160;28;20421;-78
2024/01/28 10:09:55;;;;;;;;;;;;;;;;;;10455604;28;20003;-79
2024/01/28 10:14:55;;;;;;;;;;;;;;;;;;10449675;28;19970;-78
2024/01/28 10:19:55;;;;;;;;;;;;;;;;;;10459285;28;19919;-81
2024/01/28 10:24:55;;;;;;;;;;;;;;;;;;10448388;28;19920;-79
2024/01/28 10:29:56;;;;;;;;;;;;;;;;;;10455709;28;19951;-82
2024/01/28 10:34:56;;;;;;;;;;;;;;;;;;10440439;28;20310;-77
2024/01/28 10:40:14;;;;;;;;;;;;;;;;;;10460540;28;20351;-89
2024/01/28 10:45:14;;;;;;;;;;;;;;;;;;10446043;28;19919;-80
2024/01/28 10:50:14;;;;;;;;;;;;;;;;;;10471972;28;19913;-79
2024/01/28 10:55:17;;;;;;;;;;;;;;;;;;10466151;28;19908;-88
2024/01/28 11:00:20;;;;;;;;;;;;;;;;;;10458863;28;20272;-86
2024/01/28 11:05:20;;;;;;;;;;;;;;;;;;10458580;28;20417;-91
2024/01/28 11:10:21;;;;;;;;;;;;;;;;;;10447131;28;19912;-78
2024/01/28 11:15:21;;;;;;;;;;;;;;;;;;10464065;28;19936;-82
2024/01/28 11:20:22;;;;;;;;;;;;;;;;;;10464551;28;19916;-87
2024/01/28 11:25:24;;;;;;;;;;;;;;;;;;10465437;28;19969;-83
2024/01/28 11:30:28;;;;;;;;;;;;;;;;;;10451599;28;19973;-84
2024/01/28 11:35:28;;;;;;;;;;;;;;;;;;10472412;28;20335;-83
2024/01/28 11:40:35;;;;;;;;;;;;;;;;;;10471026;28;19912;-85
2024/01/28 11:45:35;;;;;;;;;;;;;;;;;;10456409;28;19912;-80
2024/01/28 11:50:35;;;;;;;;;;;;;;;;;;10467266;28;20299;-84
2024/01/28 11:55:35;;;;;;;;;;;;;;;;;;10461260;28;19909;-82
2024/01/28 12:00:37;;;;;;;;;;;;;;;;;;10465857;28;19913;-82
2024/01/28 12:05:37;;;;;;;;;;;;;;;;;;10468179;28;19932;-82
2024/01/28 12:15:57;;;;;;;;;;;;;;;;;;10465663;28;19943;-82
2024/01/28 12:20:57;;;;;;;;;;;;;;;;;;10466752;28;20340;-81
2024/01/28 12:25:57;;;;;;;;;;;;;;;;;;10467466;28;19919;-82
2024/01/28 12:30:57;;;;;;;;;;;;;;;;;;10464443;28;19915;-82
2024/01/28 12:35:58;;;;;;;;;;;;;;;;;;10448097;28;19912;-82
2024/01/28 12:40:58;;;;;;;;;;;;;;;;;;10446055;28;20291;-82
2024/01/28 12:45:59;;;;;;;;;;;;;;;;;;10464837;28;19916;-81
2024/01/28 12:50:59;;;;;;;;;;;;;;;;;;10465469;28;20011;-81
2024/01/28 12:55:59;;;;;;;;;;;;;;;;;;10445436;28;20415;-81
2024/01/28 13:00:59;;;;;;;;;;;;;;;;;;10446935;28;20504;-81
2024/01/28 13:05:59;;;;;;;;;;;;;;;;;;10463780;28;19921;-82
2024/01/28 13:11:02;;;;;;;;;;;;;;;;;;10464811;28;19916;-81
2024/01/28 13:16:02;;;;;;;;;;;;;;;;;;10450370;28;19963;-82
2024/01/28 13:21:02;;;;;;;;;;;;;;;;;;10463749;28;19908;-82
2024/01/28 13:26:02;;;;;;;;;;;;;;;;;;10450103;28;19916;-82
2024/01/28 13:31:04;;;;;;;;;;;;;;;;;;10463533;28;20314;-81
2024/01/28 13:36:04;;;;;;;;;;;;;;;;;;10444636;28;19950;-81
2024/01/28 13:41:04;;;;;;;;;;;;;;;;;;10449003;28;20425;-80
2024/01/28 13:46:04;;;;;;;;;;;;;;;;;;10460607;28;19999;-80
2024/01/28 13:51:04;;;;;;;;;;;;;;;;;;10442657;28;20278;-80
2024/01/28 13:56:06;;;;;;;;;;;;;;;;;;10460302;28;19995;-78
2024/01/28 14:01:06;;;;;;;;;;;;;;;;;;10455485;28;19919;-78
2024/01/28 14:06:06;;;;;;;;;;;;;;;;;;10436571;28;19931;-77
2024/01/28 14:11:06;;;;;;;;;;;;;;;;;;10456692;28;20422;-77
2024/01/28 14:16:06;;;;;;;;;;;;;;;;;;10443317;28;20051;-79
2024/01/28 14:21:06;;;;;;;;;;;;;;;;;;10446765;28;19913;-78
2024/01/28 14:26:06;;;;;;;;;;;;;;;;;;10455321;28;19955;-77
2024/01/28 14:31:07;;;;;;;;;;;;;;;;;;10453920;28;19912;-78
2024/01/28 14:36:07;;;;;;;;;;;;;;;;;;10437905;28;19913;-79
2024/01/28 14:41:07;;;;;;;;;;;;;;;;;;10456109;28;19912;-79
2024/01/28 14:46:07;;;;;;;;;;;;;;;;;;10459334;28;19917;-81
2024/01/28 14:51:07;;;;;;;;;;;;;;;;;;10468245;28;20667;-79
2024/01/28 14:56:07;;;;;;;;;;;;;;;;;;10450693;28;19956;-81
2024/01/28 15:01:07;;;;;;;;;;;;;;;;;;10452212;28;19913;-87
2024/01/28 15:06:08;;;;;;;;;;;;;;;;;;10458249;28;20379;-85
2024/01/28 15:11:08;;;;;;;;;;;;;;;;;;10457327;28;19916;-91
2024/01/28 15:16:08;;;;;;;;;;;;;;;;;;10456601;28;20339;-83
2024/01/28 15:21:09;;;;;;;;;;;;;;;;;;10470948;28;19909;-90
2024/01/28 15:26:25;;;;;;;;;;;;;;;;;;10475416;28;20387;-89
2024/01/28 15:31:25;;;;;;;;;;;;;;;;;;10482183;28;20006;-90
2024/01/28 15:36:25;;;;;;;;;;;;;;;;;;10486164;28;19936;-87
2024/01/28 15:41:25;;;;;;;;;;;;;;;;;;10462034;28;19916;-87
2024/01/28 15:46:25;;;;;;;;;;;;;;;;;;10446939;28;19912;-77
2024/01/28 15:51:26;;;;;;;;;;;;;;;;;;10463447;28;20537;-79
2024/01/28 15:56:26;;;;;;;;;;;;;;;;;;10461266;28;19916;-78
2024/01/28 16:01:26;;;;;;;;;;;;;;;;;;10460685;28;19938;-77
2024/01/28 16:06:26;;;;;;;;;;;;;;;;;;10419540;28;19920;-81
2024/01/28 16:11:26;;;;;;;;;;;;;;;;;;10407111;28;19920;-83
2024/01/28 16:16:26;;;;;;;;;;;;;;;;;;10413017;28;19916;-83
2024/01/28 16:21:27;;;;;;;;;;;;;;;;;;10409073;28;19918;-82
2024/01/28 16:26:27;;;;;;;;;;;;;;;;;;10424633;28;19921;-78
2024/01/28 16:31:28;;;;;;;;;;;;;;;;;;10419102;28;19913;-78
2024/01/28 16:36:28;;;;;;;;;;;;;;;;;;10421342;28;19913;-78
2024/01/28 16:41:28;;;;;;;;;;;;;;;;;;10423468;28;20342;-84
2024/01/28 16:46:28;;;;;;;;;;;;;;;;;;10423895;28;20278;-79
2024/01/28 16:51:28;;;;;;;;;;;;;;;;;;10424608;28;20015;-79
2024/01/28 16:56:28;;;;;;;;;;;;;;;;;;10420262;28;20003;-78
2024/01/28 17:01:28;;;;;;;;;;;;;;;;;;10422401;28;19995;-83
2024/01/28 17:06:29;;;;;;;;;;;;;;;;;;10434248;28;20250;-78
2024/01/28 17:11:29;;;;;;;;;;;;;;;;;;10440610;28;20243;-79
2024/01/28 17:16:29;;;;;;;;;;;;;;;;;;10475089;28;20414;-85
2024/01/28 17:21:30;;;;;;;;;;;;;;;;;;10473866;28;19909;-86
2024/01/28 17:26:41;;;;;;;;;;;;;;;;;;;;;
2024/01/28 17:31:41;;;;;;;;;;;;;;;;;;10498353;28;20406;-91
2024/01/28 17:36:41;;;;;;;;;;;;;;;;;;10445801;28;19985;-79
2024/01/28 17:47:03;;;;;;;;;;;;;;;;;;10444812;28;19916;-78
2024/01/28 17:52:06;;;;;;;;;;;;;;;;;;10458478;28;19908;-79
2024/01/28 17:57:06;;;;;;;;;;;;;;;;;;10461140;28;19913;-86
2024/01/28 18:02:06;;;;;;;;;;;;;;;;;;10459567;28;19919;-75
2024/01/28 18:07:07;;;;;;;;;;;;;;;;;;10449880;28;19947;-76
2024/01/28 18:12:07;;;;;;;;;;;;;;;;;;10436855;28;20300;-77
2024/01/28 18:17:07;;;;;;;;;;;;;;;;;;10454099;28;19913;-76
2024/01/28 18:22:07;;;;;;;;;;;;;;;;;;10454494;28;19913;-77
2024/01/28 18:27:07;;;;;;;;;;;;;;;;;;10454740;28;19939;-79
2024/01/28 18:32:08;;;;;;;;;;;;;;;;;;10453810;28;19959;-77
2024/01/28 18:37:08;;;;;;;;;;;;;;;;;;10455023;28;20006;-78
2024/01/28 18:42:08;;;;;;;;;;;;;;;;;;10458807;28;19916;-84
2024/01/28 18:47:13;;;;;;;;;;;;;;;;;;10464406;28;19935;-81
2024/01/28 18:52:14;;;;;;;;;;;;;;;;;;10450004;28;19912;-82
2024/01/28 18:57:14;;;;;;;;;;;;;;;;;;10462430;28;19909;-85
2024/01/28 19:02:18;;;;;;;;;;;;;;;;;;10451514;28;20550;-82
2024/01/28 19:07:18;;;;;;;;;;;;;;;;;;10459802;28;19947;-80
2024/01/28 19:12:18;;;;;;;;;;;;;;;;;;10458519;28;19921;-80
2024/01/28 19:17:18;;;;;;;;;;;;;;;;;;10447388;28;20006;-80
2024/01/28 19:22:18;;;;;;;;;;;;;;;;;;10455335;28;20593;-77
2024/01/28 19:27:18;;;;;;;;;;;;;;;;;;10459376;28;19912;-81
2024/01/28 19:32:18;;;;;;;;;;;;;;;;;;10442455;28;20275;-77
2024/01/28 19:37:19;;;;;;;;;;;;;;;;;;10435530;28;20322;-78
2024/01/28 19:42:19;;;;;;;;;;;;;;;;;;10434475;28;19935;-79
2024/01/28 19:47:19;;;;;;;;;;;;;;;;;;10451974;28;19920;-78
2024/01/28 19:52:19;;;;;;;;;;;;;;;;;;10447790;28;19915;-77
2024/01/28 19:57:19;;;;;;;;;;;;;;;;;;10454994;28;19919;-78
2024/01/28 20:02:20;;;;;;;;;;;;;;;;;;10453311;28;20299;-78
2024/01/28 20:07:20;;;;;;;;;;;;;;;;;;10450858;28;19925;-79
2024/01/28 20:12:20;;;;;;;;;;;;;;;;;;10457655;28;19919;-77
2024/01/28 20:17:20;;;;;;;;;;;;;;;;;;10458351;28;20311;-78
2024/01/28 20:22:20;;;;;;;;;;;;;;;;;;10442014;28;20355;-80
2024/01/28 20:27:20;;;;;;;;;;;;;;;;;;10454921;28;19912;-78
2024/01/28 20:32:20;;;;;;;;;;;;;;;;;;10461174;28;19916;-78
2024/01/28 20:37:23;;;;;;;;;;;;;;;;;;10446176;28;19909;-78
2024/01/28 20:42:23;;;;;;;;;;;;;;;;;;10466929;28;20405;-79
2024/01/28 20:47:24;;;;;;;;;;;;;;;;;;10458472;28;20023;-79
2024/01/28 20:52:24;;;;;;;;;;;;;;;;;;10463146;28;19909;-78
2024/01/28 20:57:24;;;;;;;;;;;;;;;;;;10460853;28;19916;-80
2024/01/28 21:02:24;;;;;;;;;;;;;;;;;;10464230;28;19939;-79
2024/01/28 21:07:25;;;;;;;;;;;;;;;;;;10475705;28;19927;-80
2024/01/28 21:12:30;;;;;;;;;;;;;;;;;;10470649;28;19919;-79
2024/01/28 21:17:32;;;;;;;;;;;;;;;;;;10443789;28;19913;-80
2024/01/28 21:22:32;;;;;;;;;;;;;;;;;;10507099;28;19931;-79
2024/01/28 21:27:32;;;;;;;;;;;;;;;;;;10474915;28;19919;-80
2024/01/28 21:32:32;;;;;;;;;;;;;;;;;;10474514;28;19991;-79
2024/01/28 21:37:33;;;;;;;;;;;;;;;;;;10474244;28;19960;-80
2024/01/28 21:42:33;;;;;;;;;;;;;;;;;;10472603;28;20020;-79
2024/01/28 21:47:33;;;;;;;;;;;;;;;;;;10473277;28;19916;-80
2024/01/28 21:52:33;;;;;;;;;;;;;;;;;;10440193;28;19909;-80
2024/01/28 21:57:33;;;;;;;;;;;;;;;;;;10428481;28;19909;-80
2024/01/28 22:02:35;;;;;;;;;;;;;;;;;;10452697;28;19908;-79
2024/01/28 22:07:35;;;;;;;;;;;;;;;;;;10406051;28;19979;-80
2024/01/28 22:12:35;;;;;;;;;;;;;;;;;;10410166;28;20383;-80
2024/01/28 22:17:35;;;;;;;;;;;;;;;;;;10429411;28;19925;-79
2024/01/28 22:22:35;;;;;;;;;;;;;;;;;;10428880;28;19912;-79
2024/01/28 22:27:35;;;;;;;;;;;;;;;;;;10427259;28;19935;-80
2024/01/28 22:32:35;;;;;;;;;;;;;;;;;;10428348;28;19966;-80
2024/01/28 22:37:35;;;;;;;;;;;;;;;;;;10428154;28;20491;-80
2024/01/28 22:42:36;;;;;;;;;;;;;;;;;;10430351;28;19913;-79
2024/01/28 22:47:36;;;;;;;;;;;;;;;;;;10427981;28;20398;-79
2024/01/28 22:52:36;;;;;;;;;;;;;;;;;;10427882;28;19967;-79
2024/01/28 22:57:36;;;;;;;;;;;;;;;;;;10428185;28;20270;-79
2024/01/28 23:02:36;;;;;;;;;;;;;;;;;;10410036;28;20370;-79
2024/01/28 23:07:38;;;;;;;;;;;;;;;;;;10466003;28;19925;-80
2024/01/28 23:12:38;;;;;;;;;;;;;;;;;;10469683;28;20311;-80
2024/01/28 23:17:38;;;;;;;;;;;;;;;;;;10469682;28;19913;-79
2024/01/28 23:22:38;;;;;;;;;;;;;;;;;;10458574;28;20012;-80
2024/01/28 23:27:38;;;;;;;;;;;;;;;;;;10441536;28;20333;-79
2024/01/28 23:32:38;;;;;;;;;;;;;;;;;;10476055;28;19966;-80
2024/01/28 23:37:39;;;;;;;;;;;;;;;;;;10477500;28;20349;-80
2024/01/28 23:42:39;;;;;;;;;;;;;;;;;;10477041;28;20030;-79
2024/01/28 23:47:39;;;;;;;;;;;;;;;;;;10469170;28;19912;-78
2024/01/28 23:52:39;;;;;;;;;;;;;;;;;;10479506;28;19946;-79
2024/01/28 23:57:40;;;;;;;;;;;;;;;;;;10479581;28;19912;-80
